Time;durP1;ratioP1;P1;durP2;ratioP2;P2;SDS_P1;SDS_P2;PMS_P1;PMS_P2;Temp;Humidity;BMP_temperature;BMP_pressure;BME280_temperature;BME280_humidity;BME280_pressure;Samples;Min_cycle;Max_cycle;Signal;HPM_P1;HPM_P2
2022/10/15 00:01:39;;;;;;;;;9.67;9.67;;;;;17.14;100.00;100264.59;4856744;29;46824;-84
2022/10/15 00:04:05;;;;;;;;;10.00;8.75;;;;;17.13;100.00;100262.84;4874120;29;45355;-85
2022/10/15 00:06:30;;;;;;;;;10.25;10.25;;;;;17.10;100.00;100252.16;4873248;29;45459;-84
2022/10/15 00:08:56;;;;;;;;;9.00;9.00;;;;;17.09;100.00;100261.16;4872910;29;45307;-84
2022/10/15 00:11:24;;;;;;;;;10.75;10.50;;;;;17.06;100.00;100255.81;4874154;29;45340;-84
2022/10/15 00:13:53;;;;;;;;;8.25;8.00;;;;;17.00;100.00;100251.44;4856688;29;45752;-84
2022/10/15 00:16:20;;;;;;;;;14.00;11.67;;;;;16.98;100.00;100259.53;4872976;29;45457;-85
2022/10/15 00:18:47;;;;;;;;;9.33;9.33;;;;;16.99;100.00;100250.56;4873285;29;45566;-84
2022/10/15 00:21:14;;;;;;;;;9.67;8.33;;;;;16.97;100.00;100265.84;4862084;29;47690;-84
2022/10/15 00:23:40;;;;;;;;;10.67;10.67;;;;;17.03;100.00;100266.63;4854927;29;45776;-84
2022/10/15 00:26:12;;;;;;;;;10.00;9.00;;;;;16.99;100.00;100249.69;4865730;29;45454;-84
2022/10/15 00:28:38;;;;;;;;;9.67;9.67;;;;;16.96;100.00;100250.63;4855272;29;45365;-84
2022/10/15 00:31:08;;;;;;;;;18.25;13.75;;;;;16.90;100.00;100240.00;4869159;29;47165;-84
2022/10/15 00:33:33;;;;;;;;;10.75;10.75;;;;;16.91;100.00;100244.47;4854557;29;45493;-83
2022/10/15 00:36:01;;;;;;;;;15.00;14.00;;;;;16.92;100.00;100238.16;4869284;29;45335;-84
2022/10/15 00:38:27;;;;;;;;;14.33;11.33;;;;;16.92;100.00;100254.28;4870223;29;45569;-83
2022/10/15 00:40:52;;;;;;;;;13.00;10.00;;;;;16.89;100.00;100246.31;4870720;29;45519;-83
2022/10/15 00:43:39;;;;;;;;;14.00;12.00;;;;;16.92;100.00;100254.28;4873951;29;45435;-84
2022/10/15 00:46:14;;;;;;;;;11.00;11.00;;;;;16.89;100.00;100237.38;4874639;29;45355;-84
2022/10/15 00:48:39;;;;;;;;;14.67;13.33;;;;;16.88;100.00;100231.09;4857950;29;45423;-83
2022/10/15 00:51:05;;;;;;;;;8.33;8.33;;;;;16.92;100.00;100239.97;4874644;29;46516;-84
2022/10/15 00:53:31;;;;;;;;;12.33;11.67;;;;;16.91;100.00;100241.78;4858551;28;45358;-84
2022/10/15 00:55:59;;;;;;;;;12.33;11.33;;;;;16.90;100.00;100231.94;4874558;29;45595;-84
2022/10/15 00:58:30;;;;;;;;;8.00;8.00;;;;;16.89;100.00;100230.19;4859419;28;45435;-84
2022/10/15 01:00:56;;;;;;;;;9.33;7.67;;;;;16.84;100.00;100212.38;4875689;28;45514;-83
2022/10/15 01:03:22;;;;;;;;;10.00;9.00;;;;;16.86;100.00;100215.94;4874621;28;44752;-83
2022/10/15 01:05:50;;;;;;;;;9.00;9.00;;;;;16.82;100.00;100209.72;4874553;28;45663;-83
2022/10/15 01:08:16;;;;;;;;;10.33;10.00;;;;;16.72;100.00;100206.31;4859056;28;45405;-83
2022/10/15 01:11:02;;;;;;;;;10.67;10.67;;;;;16.77;100.00;100208.91;4874480;28;44909;-82
2022/10/15 01:13:37;;;;;;;;;10.67;10.00;;;;;16.74;100.00;100200.91;4873519;29;45883;-82
2022/10/15 01:16:24;;;;;;;;;8.67;8.67;;;;;16.71;100.00;100211.72;4858227;29;45400;-82
2022/10/15 01:19:16;;;;;;;;;8.00;8.00;;;;;16.67;100.00;100199.28;4857749;29;45639;-82
2022/10/15 01:21:50;;;;;;;;;10.67;10.67;;;;;16.68;100.00;100206.41;4818795;29;48032;-83
2022/10/15 01:24:42;;;;;;;;;10.00;9.33;;;;;16.68;100.00;100192.97;4846980;29;44932;-83
2022/10/15 01:27:36;;;;;;;;;13.00;11.00;;;;;16.62;100.00;100185.91;4836314;29;45859;-82
2022/10/15 01:30:10;;;;;;;;;9.00;9.00;;;;;16.63;100.00;100186.84;4852640;29;45737;-82
2022/10/15 01:32:47;;;;;;;;;9.33;8.67;;;;;16.60;100.00;100177.00;4836150;29;46754;-83
2022/10/15 01:35:12;;;;;;;;;7.50;7.00;;;;;16.55;100.00;100174.44;4834493;29;45370;-83
2022/10/15 01:37:45;;;;;;;;;7.75;7.75;;;;;16.55;100.00;100179.78;4851228;29;45506;-83
2022/10/15 01:40:34;;;;;;;;;5.67;5.67;;;;;16.53;100.00;100162.84;4836241;29;45985;-82
2022/10/15 01:43:03;;;;;;;;;5.33;5.33;;;;;16.48;100.00;100159.38;4834613;29;46936;-82
2022/10/15 01:45:40;;;;;;;;;2.00;1.00;;;;;16.47;100.00;100151.34;4850729;29;45514;-83
2022/10/15 01:48:10;;;;;;;;;6.50;3.00;;;;;16.45;100.00;100151.38;4836258;29;45973;-82
2022/10/15 01:50:42;;;;;;;;;6.75;6.00;;;;;16.39;100.00;100146.13;4838057;29;45814;-83
2022/10/15 01:53:12;;;;;;;;;4.50;4.50;;;;;16.42;100.00;100151.44;4836640;29;47344;-83
2022/10/15 01:55:43;;;;;;;;;3.50;3.50;;;;;16.38;100.00;100134.50;4836920;29;44852;-83
2022/10/15 01:58:16;;;;;;;;;5.50;3.75;;;;;16.27;100.00;100112.34;4845164;29;45534;-82
2022/10/15 02:00:42;;;;;;;;;3.33;3.33;;;;;16.39;100.00;100127.34;4871808;29;45254;-83
2022/10/15 02:03:08;;;;;;;;;5.00;3.75;;;;;16.44;100.00;100127.22;4873745;29;45610;-83
2022/10/15 02:05:39;;;;;;;;;3.00;3.00;;;;;16.43;100.00;100122.81;4858479;29;45409;-83
2022/10/15 02:08:23;;;;;;;;;5.25;4.00;;;;;16.47;100.00;100122.69;4876480;29;45217;-83
2022/10/15 02:10:59;;;;;;;;;4.00;4.00;;;;;16.43;100.00;100104.88;4857561;29;45647;-82
2022/10/15 02:13:43;;;;;;;;;3.00;3.00;;;;;16.45;100.00;100096.81;4872618;29;45391;-83
2022/10/15 02:16:26;;;;;;;;;3.00;3.00;;;;;16.43;100.00;100104.88;4857439;29;45434;-82
2022/10/15 02:18:55;;;;;;;;;4.00;2.75;;;;;16.47;100.00;100095.84;4857671;29;45418;-82
2022/10/15 02:21:34;;;;;;;;;2.75;2.75;;;;;16.47;100.00;100090.50;4873372;29;45365;-82
2022/10/15 02:24:56;;;;;;;;;3.75;3.75;;;;;16.49;100.00;100085.97;4873525;29;45483;-83
2022/10/15 02:27:24;;;;;;;;;4.75;3.75;;;;;16.51;100.00;100085.94;4816505;29;45551;-83
2022/10/15 02:29:51;;;;;;;;;4.25;3.75;;;;;16.44;100.00;100077.16;4845464;29;45516;-83
2022/10/15 02:32:20;;;;;;;;;4.75;4.00;;;;;16.47;100.00;100066.34;4852654;29;45799;-83
2022/10/15 02:34:46;;;;;;;;;4.00;4.00;;;;;16.51;100.00;100059.97;4837230;29;47072;-82
2022/10/15 02:37:12;;;;;;;;;1.75;1.75;;;;;16.52;100.00;100055.50;4836330;29;45439;-83
2022/10/15 02:39:38;;;;;;;;;2.00;2.00;;;;;16.51;100.00;100049.25;4851779;29;45422;-83
2022/10/15 02:42:03;;;;;;;;;3.00;3.00;;;;;16.49;100.00;100037.66;4835790;29;45546;-82
2022/10/15 02:44:29;;;;;;;;;2.00;2.00;;;;;16.52;100.00;100032.25;4834848;29;45464;-83
2022/10/15 02:46:57;;;;;;;;;1.00;1.00;;;;;16.52;100.00;100029.56;4849572;29;45452;-83
2022/10/15 02:49:23;;;;;;;;;2.00;2.00;;;;;16.53;100.00;100031.31;4834908;29;45995;-83
2022/10/15 02:51:48;;;;;;;;;4.00;4.00;;;;;16.54;100.00;100040.22;4851669;29;45484;-83
2022/10/15 02:54:13;;;;;;;;;2.75;2.75;;;;;16.49;100.00;100026.03;4836100;29;46949;-83
2022/10/15 02:56:40;;;;;;;;;2.00;2.00;;;;;16.51;100.00;100032.25;4851394;29;45142;-82
2022/10/15 02:59:06;;;;;;;;;3.00;3.00;;;;;16.52;100.00;100023.28;4851089;29;45451;-83
2022/10/15 03:01:33;;;;;;;;;3.75;3.75;;;;;16.48;100.00;100008.16;4836492;29;45464;-82
2022/10/15 03:03:58;;;;;;;;;3.75;3.25;;;;;16.53;100.00;100020.56;4851602;29;46047;-82
2022/10/15 03:06:24;;;;;;;;;2.25;2.25;;;;;16.55;100.00;100018.72;4851626;29;45610;-83
2022/10/15 03:08:49;;;;;;;;;2.25;2.25;;;;;16.56;100.00;100004.41;4835385;29;45460;-83
2022/10/15 03:11:15;;;;;;;;;2.00;2.00;;;;;16.60;100.00;100003.41;4850283;29;45356;-83
2022/10/15 03:13:41;;;;;;;;;2.00;2.00;;;;;16.63;100.00;99999.78;4855002;29;47172;-83
2022/10/15 03:16:09;;;;;;;;;3.75;1.00;;;;;16.61;100.00;99982.81;4856257;29;45459;-83
2022/10/15 03:18:35;;;;;;;;;1.00;1.00;;;;;16.65;100.00;99986.31;4855455;29;45314;-83
2022/10/15 03:21:00;;;;;;;;;2.00;2.00;;;;;16.66;100.00;99988.94;4854566;29;45521;-83
2022/10/15 03:23:26;;;;;;;;;1.00;1.00;;;;;16.67;100.00;99982.69;4855610;29;47092;-83
2022/10/15 03:25:53;;;;;;;;;1.00;1.00;;;;;16.71;100.00;99975.44;4860484;29;45383;-83
2022/10/15 03:28:24;;;;;;;;;0.50;0.50;;;;;16.67;100.00;99958.50;4872878;29;45516;-81
2022/10/15 03:30:50;;;;;;;;;0.75;0.75;;;;;16.69;100.00;99959.38;4856635;29;44913;-83
2022/10/15 03:33:15;;;;;;;;;0.75;0.75;;;;;16.70;100.00;99962.91;4875155;29;45374;-83
2022/10/15 03:35:41;;;;;;;;;0.50;0.50;;;;;16.77;100.00;99960.06;4858207;29;44761;-83
2022/10/15 03:38:07;;;;;;;;;3.00;2.50;;;;;16.77;100.00;99941.25;4873442;29;45322;-83
2022/10/15 03:40:33;;;;;;;;;0.00;0.00;;;;;16.85;100.00;99950.97;4873178;29;45459;-84
2022/10/15 03:42:59;;;;;;;;;0.00;0.00;;;;;16.85;100.00;99942.94;4872211;29;47105;-83
2022/10/15 03:45:24;;;;;;;;;2.00;1.00;;;;;16.90;100.00;99949.06;4867538;29;45522;-83
2022/10/15 03:47:50;;;;;;;;;0.50;0.50;;;;;16.89;100.00;99931.19;4875094;29;45371;-83
2022/10/15 03:50:16;;;;;;;;;0.00;0.00;;;;;16.99;100.00;99943.47;4857646;29;45527;-83
2022/10/15 03:52:42;;;;;;;;;0.00;0.00;;;;;17.06;100.00;99938.81;4857327;29;47176;-83
2022/10/15 03:55:08;;;;;;;;;0.00;0.00;;;;;17.06;100.00;99939.69;4872294;29;45465;-82
2022/10/15 03:57:35;;;;;;;;;0.00;0.00;;;;;17.08;100.00;99932.47;4856459;29;44771;-83
2022/10/15 04:00:01;;;;;;;;;0.00;0.00;;;;;17.13;100.00;99927.88;4886497;29;45291;-84
2022/10/15 04:02:26;;;;;;;;;0.25;0.00;;;;;17.12;100.00;99926.09;4873541;29;45491;-83
2022/10/15 04:04:52;;;;;;;;;0.00;0.00;;;;;17.11;100.00;99918.09;4873746;29;45285;-83
2022/10/15 04:07:20;;;;;;;;;0.00;0.00;;;;;17.15;100.00;99917.09;4857624;29;45437;-82
2022/10/15 04:09:46;;;;;;;;;0.00;0.00;;;;;17.13;100.00;99910.88;4868837;29;45477;-83
2022/10/15 04:12:11;;;;;;;;;0.00;0.00;;;;;17.15;100.00;99914.41;4857236;29;46983;-85
2022/10/15 04:14:37;;;;;;;;;0.00;0.00;;;;;17.13;100.00;99918.94;4873367;29;45558;-83
2022/10/15 04:17:02;;;;;;;;;1.00;0.75;;;;;17.13;100.00;99913.56;4869549;29;45374;-83
2022/10/15 04:19:27;;;;;;;;;0.25;0.25;;;;;17.14;100.00;99905.44;4854791;29;45381;-83
2022/10/15 04:21:53;;;;;;;;;1.00;1.00;;;;;17.13;100.00;99900.13;4870785;29;45297;-83
2022/10/15 04:24:18;;;;;;;;;3.00;3.00;;;;;17.17;100.00;99909.88;4853209;29;46244;-83
2022/10/15 04:26:44;;;;;;;;;1.50;1.50;;;;;17.18;100.00;99911.63;4853480;29;45448;-83
2022/10/15 04:29:10;;;;;;;;;1.50;1.50;;;;;17.19;100.00;99910.72;4871177;28;45435;-83
2022/10/15 04:31:36;;;;;;;;;2.00;2.00;;;;;17.21;100.00;99916.94;4871942;29;45388;-84
2022/10/15 04:34:02;;;;;;;;;2.50;2.50;;;;;17.21;100.00;99914.25;4872030;29;45371;-83
2022/10/15 04:36:27;;;;;;;;;2.00;2.00;;;;;17.20;100.00;99905.28;4855560;29;45407;-83
2022/10/15 04:38:53;;;;;;;;;2.25;2.25;;;;;17.23;100.00;99908.81;4859299;29;45542;-83
2022/10/15 04:41:20;;;;;;;;;2.75;2.75;;;;;17.24;100.00;99911.47;4889981;29;45500;-83
2022/10/15 04:43:45;;;;;;;;;4.75;4.50;;;;;17.15;100.00;99909.91;4889328;29;45430;-83
2022/10/15 04:46:11;;;;;;;;;4.25;3.00;;;;;17.22;100.00;99921.38;4874181;29;45551;-83
2022/10/15 04:48:39;;;;;;;;;3.25;3.25;;;;;17.21;100.00;99922.31;4889926;29;45430;-83
2022/10/15 04:51:17;;;;;;;;;4.25;4.00;;;;;17.24;100.00;99930.28;4891248;29;45731;-84
2022/10/15 04:53:43;;;;;;;;;3.75;2.75;;;;;17.26;100.00;99923.06;4879168;29;45282;-83
2022/10/15 04:56:16;;;;;;;;;2.50;2.00;;;;;17.25;100.00;99928.47;4872277;29;44864;-82
2022/10/15 04:58:42;;;;;;;;;1.00;1.00;;;;;17.25;100.00;99929.38;4855714;29;45824;-83
2022/10/15 05:01:11;;;;;;;;;1.00;1.00;;;;;17.30;100.00;99943.53;4855630;29;47044;-83
2022/10/15 05:03:37;;;;;;;;;1.40;1.40;;;;;17.29;100.00;99941.78;4863421;29;45677;-82
2022/10/15 05:06:04;;;;;;;;;0.00;0.00;;;;;17.25;100.00;99918.63;4872930;29;45514;-82
2022/10/15 05:08:31;;;;;;;;;1.00;1.00;;;;;17.34;100.00;99941.66;4856403;29;44981;-83
2022/10/15 05:11:05;;;;;;;;;1.00;1.00;;;;;17.36;100.00;99937.13;4854676;29;47123;-83
2022/10/15 05:13:31;;;;;;;;;1.00;1.00;;;;;17.33;100.00;99932.72;4855863;29;45416;-83
2022/10/15 05:16:07;;;;;;;;;0.50;0.50;;;;;17.40;100.00;99941.50;4871455;29;45355;-83
2022/10/15 05:18:33;;;;;;;;;0.00;0.00;;;;;17.44;100.00;99939.63;4853961;29;45495;-83
2022/10/15 05:21:01;;;;;;;;;0.00;0.00;;;;;17.46;100.00;99938.66;4862238;29;46890;-83
2022/10/15 05:23:26;;;;;;;;;0.00;0.00;;;;;17.44;100.00;99931.56;4866167;29;45183;-83
2022/10/15 05:25:52;;;;;;;;;0.00;0.00;;;;;17.49;100.00;99933.19;4874362;29;45398;-83
2022/10/15 05:28:17;;;;;;;;;0.00;0.00;;;;;17.51;100.00;99941.19;4858023;29;45414;-83
2022/10/15 05:30:43;;;;;;;;;2.00;0.25;;;;;17.50;100.00;99934.06;4858234;29;46792;-83
2022/10/15 05:33:08;;;;;;;;;0.25;0.00;;;;;17.48;100.00;99935.91;4858046;29;45431;-83
2022/10/15 05:39:00;;;;;;;;;1.00;1.00;;;;;17.57;100.00;99922.22;4873336;29;45436;-82
2022/10/15 05:41:26;;;;;;;;;0.00;0.00;;;;;17.56;100.00;99929.41;4859488;29;47080;-83
2022/10/15 05:43:53;;;;;;;;;0.00;0.00;;;;;17.58;100.00;99926.69;4874171;29;45756;-83
2022/10/15 05:46:20;;;;;;;;;0.00;0.00;;;;;17.66;100.00;99932.72;4877389;29;45415;-82
2022/10/15 05:48:53;;;;;;;;;2.75;1.50;;;;;17.68;100.00;99935.38;4859350;29;45480;-83
2022/10/15 05:51:19;;;;;;;;;0.00;0.00;;;;;17.65;100.00;99928.25;4858962;29;47859;-82
2022/10/15 05:53:45;;;;;;;;;0.25;0.25;;;;;17.62;100.00;99919.41;4859163;29;45403;-83
2022/10/15 05:56:14;;;;;;;;;1.00;1.00;;;;;17.66;100.00;99930.03;4872232;29;44884;-82
2022/10/15 05:58:40;;;;;;;;;0.00;0.00;;;;;17.70;100.00;99934.41;4857327;29;45398;-82
2022/10/15 06:01:08;;;;;;;;;0.75;0.75;;;;;17.69;100.00;99929.94;4856749;29;47106;-83
2022/10/15 06:03:34;;;;;;;;;0.75;0.75;;;;;17.67;100.00;99931.78;4864328;29;45614;-83
2022/10/15 06:06:00;;;;;;;;;1.75;1.00;;;;;17.69;100.00;99942.50;4873744;29;45398;-83
2022/10/15 06:08:27;;;;;;;;;0.00;0.00;;;;;17.70;100.00;99926.34;4867412;29;45376;-83
2022/10/15 06:10:53;;;;;;;;;0.00;0.00;;;;;17.73;100.00;99934.31;4872774;29;46722;-83
2022/10/15 06:13:18;;;;;;;;;0.00;0.00;;;;;17.73;100.00;99931.63;4860840;29;44739;-83
2022/10/15 06:15:45;;;;;;;;;0.00;0.00;;;;;17.76;100.00;99931.53;4857886;29;45161;-82
2022/10/15 06:18:14;;;;;;;;;0.00;0.00;;;;;17.76;100.00;99930.66;4875981;29;45838;-83
2022/10/15 06:20:40;;;;;;;;;2.00;1.00;;;;;17.74;100.00;99921.75;4874275;29;45999;-82
2022/10/15 06:23:06;;;;;;;;;1.00;1.00;;;;;17.78;100.00;99935.06;4857804;29;45469;-83
2022/10/15 06:25:32;;;;;;;;;0.00;0.00;;;;;17.75;100.00;99935.16;4870582;29;45544;-84
2022/10/15 06:28:10;;;;;;;;;0.00;0.00;;;;;17.77;100.00;99938.69;4876770;29;45438;-83
2022/10/15 06:30:36;;;;;;;;;0.00;0.00;;;;;17.77;100.00;99938.69;4874573;29;45362;-83
2022/10/15 06:33:01;;;;;;;;;1.00;0.00;;;;;17.78;100.00;99939.56;4872388;29;45755;-83
2022/10/15 06:35:32;;;;;;;;;1.00;1.00;;;;;17.77;100.00;99946.75;4859294;29;44836;-82
2022/10/15 06:37:59;;;;;;;;;1.00;0.00;;;;;17.75;100.00;99936.94;4875509;29;45483;-82
2022/10/15 06:40:24;;;;;;;;;0.75;0.75;;;;;17.84;100.00;99946.63;4858232;29;46804;-83
2022/10/15 06:42:50;;;;;;;;;0.25;0.25;;;;;17.86;100.00;99947.47;4857673;29;45367;-83
2022/10/15 06:45:15;;;;;;;;;0.75;0.75;;;;;17.90;100.00;99951.81;4858109;29;45677;-83
2022/10/15 06:47:42;;;;;;;;;0.00;0.00;;;;;17.86;100.00;99940.25;4875004;29;45368;-83
2022/10/15 06:50:08;;;;;;;;;0.00;0.00;;;;;17.92;100.00;99949.97;4874806;29;45722;-82
2022/10/15 06:52:34;;;;;;;;;0.00;0.00;;;;;17.87;100.00;99950.06;4874391;29;45758;-83
2022/10/15 06:54:59;;;;;;;;;1.00;1.00;;;;;17.86;100.00;99956.41;4859571;29;45427;-83
2022/10/15 06:57:27;;;;;;;;;0.00;0.00;;;;;17.84;100.00;99955.56;4859253;29;45466;-84
2022/10/15 06:59:52;;;;;;;;;0.25;0.25;;;;;17.93;100.00;99957.97;4873348;29;46732;-83
2022/10/15 07:02:18;;;;;;;;;0.00;0.00;;;;;17.90;100.00;99949.13;4858217;29;44765;-83
2022/10/15 07:04:47;;;;;;;;;0.25;0.25;;;;;18.03;100.00;99963.97;4873914;29;44741;-82
2022/10/15 07:07:13;;;;;;;;;0.75;0.75;;;;;18.03;100.00;99955.03;4858224;29;45579;-82
2022/10/15 07:09:39;;;;;;;;;0.25;0.25;;;;;18.06;100.00;99955.81;4856266;29;47001;-83
2022/10/15 07:12:04;;;;;;;;;0.00;0.00;;;;;18.07;100.00;99949.50;4871066;29;45555;-83
2022/10/15 07:14:30;;;;;;;;;3.00;3.00;;;;;18.15;100.00;99966.31;4874448;29;44801;-83
2022/10/15 07:16:56;;;;;;;;;0.00;0.00;;;;;18.19;100.00;99956.34;4872415;29;45476;-83
2022/10/15 07:19:22;;;;;;;;;1.00;0.00;;;;;18.22;100.00;99966.13;4856958;29;47453;-83
2022/10/15 07:21:47;;;;;;;;;0.50;0.50;;;;;18.31;100.00;99976.63;4873041;29;44784;-84
2022/10/15 07:24:13;;;;;;;;;0.00;0.00;;;;;18.37;100.00;99971.94;4874295;29;45035;-82
2022/10/15 07:26:38;;;;;;;;;0.00;0.00;;;;;18.38;100.00;99973.72;4871835;29;45436;-82
2022/10/15 07:29:10;;;;;;;;;1.00;0.00;;;;;18.40;100.00;99965.59;4855138;29;45361;-83
2022/10/15 07:31:36;;;;;;;;;0.00;0.00;;;;;18.45;100.00;99974.38;4871905;29;45503;-84
2022/10/15 07:34:01;;;;;;;;;2.00;1.00;;;;;18.50;100.00;99977.84;4872563;29;44808;-82
2022/10/15 07:36:26;;;;;;;;;0.00;0.00;;;;;18.55;100.00;99988.47;4855462;29;45440;-83
2022/10/15 07:38:52;;;;;;;;;0.00;0.00;;;;;18.51;100.00;99979.59;4871868;29;45896;-83
2022/10/15 07:41:17;;;;;;;;;0.00;0.00;;;;;18.47;100.00;99983.31;4871804;29;45494;-83
2022/10/15 07:43:43;;;;;;;;;0.00;0.00;;;;;18.44;100.00;99983.41;4854925;29;45166;-83
2022/10/15 07:46:08;;;;;;;;;0.00;0.00;;;;;18.48;100.00;99990.47;4869426;29;45355;-83
2022/10/15 07:48:34;;;;;;;;;0.00;0.00;;;;;18.43;100.00;99978.94;4854639;29;48426;-84
2022/10/15 07:51:02;;;;;;;;;0.25;0.25;;;;;18.49;100.00;100003.00;4853490;29;44751;-83
2022/10/15 07:53:28;;;;;;;;;0.00;0.00;;;;;18.49;100.00;100008.38;4871488;28;45355;-82
2022/10/15 07:55:58;;;;;;;;;0.00;0.00;;;;;18.51;100.00;100006.50;4872273;29;45518;-83
2022/10/15 07:58:24;;;;;;;;;0.00;0.00;;;;;18.57;100.00;100005.44;4871887;29;45479;-83
2022/10/15 08:00:49;;;;;;;;;0.00;0.00;;;;;18.59;100.00;99998.22;4870108;29;45682;-83
2022/10/15 08:03:15;;;;;;;;;0.00;0.00;;;;;18.61;100.00;100001.72;4871156;29;45384;-83
2022/10/15 08:05:40;;;;;;;;;0.00;0.00;;;;;18.68;100.00;100007.81;4874217;29;45515;-84
2022/10/15 08:08:06;;;;;;;;;0.00;0.00;;;;;18.67;100.00;100012.31;4874317;29;45442;-83
2022/10/15 08:10:31;;;;;;;;;0.00;0.00;;;;;18.67;100.00;100014.13;4871855;29;45433;-83
2022/10/15 08:12:57;;;;;;;;;0.00;0.00;;;;;18.62;100.00;99999.91;4872734;29;45346;-83
2022/10/15 08:15:23;;;;;;;;;0.00;0.00;;;;;18.67;100.00;100016.81;4857098;29;45427;-82
2022/10/15 08:17:48;;;;;;;;;0.00;0.00;;;;;18.61;100.00;100015.19;4872385;29;46645;-84
2022/10/15 08:20:14;;;;;;;;;0.75;0.75;;;;;18.57;100.00;100009.03;4858814;29;45480;-84
2022/10/15 08:22:39;;;;;;;;;0.00;0.00;;;;;18.57;100.00;100011.72;4860691;29;45590;-83
2022/10/15 08:25:05;;;;;;;;;0.00;0.00;;;;;18.58;100.00;100018.88;4854917;29;45449;-82
2022/10/15 08:27:30;;;;;;;;;1.00;1.00;;;;;18.54;100.00;100006.44;4855206;29;45527;-83
2022/10/15 08:29:56;;;;;;;;;0.00;0.00;;;;;18.49;100.00;99994.03;4855066;29;45538;-83
2022/10/15 08:32:21;;;;;;;;;0.00;0.00;;;;;18.47;100.00;100009.34;4871042;29;45673;-83
2022/10/15 08:34:47;;;;;;;;;1.00;0.00;;;;;18.46;100.00;100011.19;4870783;29;44865;-83
2022/10/15 08:37:12;;;;;;;;;0.50;0.50;;;;;18.45;100.00;100016.59;4867680;29;46840;-84
2022/10/15 08:39:37;;;;;;;;;0.00;0.00;;;;;18.52;100.00;100024.44;4873422;29;44861;-83
2022/10/15 08:42:30;;;;;;;;;0.00;0.00;;;;;18.58;100.00;100024.25;4871682;29;45732;-83
2022/10/15 08:45:01;;;;;;;;;0.00;0.00;;;;;18.64;100.00;100038.44;4855667;29;45442;-83
2022/10/15 08:47:42;;;;;;;;;0.00;0.00;;;;;18.73;100.00;100035.50;4871645;29;45475;-83
2022/10/15 08:50:33;;;;;;;;;0.00;0.00;;;;;18.82;100.00;100035.22;4855500;29;45620;-83
2022/10/15 08:52:59;;;;;;;;;0.00;0.00;;;;;18.87;100.00;100030.59;4872853;29;45593;-83
2022/10/15 08:55:34;;;;;;;;;0.00;0.00;;;;;18.94;100.00;100034.84;4866871;29;45573;-83
2022/10/15 08:58:03;;;;;;;;;0.00;0.00;;;;;19.03;100.00;100035.47;4855274;29;46770;-83
2022/10/15 09:00:32;;;;;;;;;0.00;0.00;;;;;19.08;100.00;100038.91;4855893;29;45442;-82
2022/10/15 09:03:11;;;;;;;;;0.00;0.00;;;;;19.08;100.00;100034.41;4857079;29;44878;-83
2022/10/15 09:05:49;;;;;;;;;3.75;3.75;;;;;19.20;100.00;100049.28;4857539;29;45399;-82
2022/10/15 09:08:40;;;;;;;;;1.00;1.00;;;;;19.22;100.00;100047.44;4857604;29;47039;-83
2022/10/15 09:11:33;;;;;;;;;0.00;0.00;;;;;19.27;100.00;100053.56;4873385;29;45534;-83
2022/10/15 09:13:59;;;;;;;;;0.00;0.00;;;;;19.28;100.00;100052.63;4874085;29;45530;-83
2022/10/15 09:16:31;;;;;;;;;1.00;1.00;;;;;19.36;100.00;100060.47;4873701;29;45376;-83
2022/10/15 09:19:01;;;;;;;;;0.00;0.00;;;;;19.45;100.00;100053.88;4856493;29;47820;-83
2022/10/15 09:21:30;;;;;;;;;0.00;0.00;;;;;19.66;100.00;100063.94;4873701;28;45448;-84
2022/10/15 09:24:01;;;;;;;;;0.00;0.00;;;;;19.79;100.00;100059.03;4856819;29;45417;-83
2022/10/15 09:26:50;;;;;;;;;0.00;0.00;;;;;19.89;100.00;100054.19;4855962;29;45400;-83
2022/10/15 09:29:38;;;;;;;;;1.00;1.00;;;;;19.96;100.00;100074.66;4873044;29;45455;-83
2022/10/15 09:32:15;;;;;;;;;0.00;0.00;;;;;20.07;100.00;100077.81;4856938;28;45646;-83
2022/10/15 09:35:00;;;;;;;;;0.00;0.00;;;;;20.12;100.00;100073.16;4872915;29;45473;-83
2022/10/15 09:37:37;;;;;;;;;0.00;0.00;;;;;20.14;100.00;100068.59;4873931;29;45431;-84
2022/10/15 09:43:34;;;;;;;;;0.00;0.00;;;;;20.14;100.00;100068.59;4872728;29;45358;-83
2022/10/15 09:46:01;;;;;;;;;2.00;2.00;;;;;20.23;100.00;100069.19;4871709;29;45730;-83
2022/10/15 09:48:32;;;;;;;;;0.00;0.00;;;;;20.32;100.00;100069.75;4854156;29;45465;-83
2022/10/15 09:51:05;;;;;;;;;0.00;0.00;;;;;20.48;100.00;100075.44;4854656;29;47089;-84
2022/10/15 09:56:56;;;;;;;;;0.25;0.00;;;;;20.50;100.00;100088.88;4871639;29;45473;-83
2022/10/15 09:59:24;;;;;;;;;0.00;0.00;;;;;20.49;100.00;100104.22;4855869;29;44893;-83
2022/10/15 10:02:20;;;;;;;;;0.00;0.00;;;;;20.51;100.00;100113.13;4866268;29;47355;-83
2022/10/15 10:04:46;;;;;;;;;0.80;0.80;;;;;20.54;100.00;100123.84;4860990;29;45463;-83
2022/10/15 10:07:35;;;;;;;;;0.00;0.00;;;;;20.59;100.00;100134.50;4870862;29;44808;-83
2022/10/15 10:10:23;;;;;;;;;1.00;1.00;;;;;20.67;100.00;100143.22;4856981;29;45343;-84
2022/10/15 10:12:50;;;;;;;;;0.00;0.00;;;;;20.66;100.00;100135.16;4874694;29;45435;-83
2022/10/15 10:15:39;;;;;;;;;0.60;0.60;;;;;20.49;100.00;100125.81;4874393;29;44822;-83
2022/10/15 10:18:20;;;;;;;;;0.00;0.00;;;;;20.56;100.00;100143.59;4857297;29;45404;-83
2022/10/15 10:21:00;;;;;;;;;0.00;0.00;;;;;20.63;100.00;100132.59;4858099;29;45405;-84
2022/10/15 10:23:35;;;;;;;;;0.00;0.00;;;;;20.76;100.00;100139.28;4857191;29;47470;-83
2022/10/15 10:26:04;;;;;;;;;0.40;0.40;;;;;20.72;100.00;100132.22;4857314;29;45203;-84
2022/10/15 10:28:52;;;;;;;;;0.00;0.00;;;;;20.75;100.00;100143.81;4874494;29;44816;-84
2022/10/15 10:31:27;;;;;;;;;0.00;0.00;;;;;20.70;100.00;100147.59;4871585;29;45904;-84
2022/10/15 10:33:52;;;;;;;;;0.00;0.00;;;;;20.72;100.00;100157.44;4857157;29;47204;-83
2022/10/15 10:36:22;;;;;;;;;0.00;0.00;;;;;20.73;100.00;100153.78;4857169;29;45405;-84
2022/10/15 10:39:27;;;;;;;;;0.00;0.00;;;;;20.68;100.00;100152.19;4874799;29;45380;-83
2022/10/15 10:42:04;;;;;;;;;0.00;0.00;;;;;20.66;100.00;100152.22;4848231;29;45524;-84
2022/10/15 10:44:45;;;;;;;;;0.00;0.00;;;;;20.67;100.00;100151.31;4855818;29;48108;-83
2022/10/15 10:47:22;;;;;;;;;0.00;0.00;;;;;20.65;100.00;100155.03;4856290;29;45690;-82
2022/10/15 10:49:53;;;;;;;;;0.00;0.00;;;;;20.60;100.00;100147.06;4857457;29;44763;-83
2022/10/15 10:52:19;;;;;;;;;0.00;0.00;;;;;20.66;100.00;100151.34;4873798;29;44791;-84
2022/10/15 10:54:45;;;;;;;;;1.25;1.25;;;;;20.72;100.00;100154.75;4856938;29;46841;-84
2022/10/15 10:57:17;;;;;;;;;0.00;0.00;;;;;20.78;100.00;100159.91;4874471;29;45391;-84
2022/10/15 10:59:50;;;;;;;;;0.00;0.00;;;;;20.82;100.00;100155.25;4856281;29;45533;-83
2022/10/15 11:02:16;;;;;;;;;0.00;0.00;;;;;20.90;100.00;100168.47;4857369;29;44929;-83
2022/10/15 11:04:42;;;;;;;;;0.00;0.00;;;;;20.86;100.00;100167.72;4871853;29;45804;-84
2022/10/15 11:07:32;;;;;;;;;2.75;1.00;;;;;20.89;100.00;100172.16;4857552;29;45707;-83
2022/10/15 11:10:28;;;;;;;;;0.00;0.00;;;;;20.93;100.00;100173.78;4857582;29;45821;-84
2022/10/15 11:13:18;;;;;;;;;0.50;0.50;;;;;20.96;100.00;100169.13;4875757;29;45438;-83
2022/10/15 11:16:11;;;;;;;;;0.00;0.00;;;;;21.07;100.00;100170.56;4874280;29;46951;-83
2022/10/15 11:19:32;;;;;;;;;0.00;0.00;;;;;21.16;100.00;100175.59;4873767;29;45640;-83
2022/10/15 11:22:14;;;;;;;;;0.00;0.00;;;;;21.24;100.00;100181.59;4873253;29;45328;-84
2022/10/15 11:25:05;;;;;;;;;0.00;0.00;;;;;21.26;100.00;100182.41;4858738;29;44913;-84
2022/10/15 11:27:44;;;;;;;;;1.00;1.00;;;;;21.40;100.00;100172.88;4873441;29;45506;-83
2022/10/15 11:30:31;;;;;;;;;1.00;1.00;;;;;21.54;100.00;100173.25;4872922;29;45452;-84
2022/10/15 11:33:31;;;;;;;;;0.00;0.00;;;;;21.68;100.00;100187.09;4857799;29;44722;-83
2022/10/15 11:36:15;;;;;;;;;0.00;0.00;;;;;21.82;100.00;100185.66;4874020;29;45400;-83
2022/10/15 11:38:49;;;;;;;;;0.00;0.00;;;;;21.96;100.00;100172.41;4857671;29;47004;-84
2022/10/15 11:41:24;;;;;;;;;0.80;0.80;;;;;22.12;100.00;100159.13;4857112;29;45411;-83
2022/10/15 11:44:05;;;;;;;;;0.00;0.00;;;;;22.19;100.00;100155.19;4858049;29;44948;-83
2022/10/15 11:46:55;;;;;;;;;0.00;0.00;;;;;22.22;100.00;100162.28;4857184;29;45407;-83